Time;durP1;ratioP1;P1;durP2;ratioP2;P2;SDS_P1;SDS_P2;PMS_P1;PMS_P2;Temp;Humidity;BMP_temperature;BMP_pressure;BME280_temperature;BME280_humidity;BME280_pressure;Samples;Min_cycle;Max_cycle;Signal;HPM_P1;HPM_P2
2021/01/10 00:02:16;;;;;;;6.20;4.20;;;;;;;2.53;100.00;94938.34;5095175;28;20435;-87
2021/01/10 00:04:43;;;;;;;5.43;4.20;;;;;;;2.51;100.00;94965.25;5095546;28;20443;-87
2021/01/10 00:07:09;;;;;;;5.90;5.20;;;;;;;2.53;100.00;94958.22;5095573;28;20448;-87
2021/01/10 00:09:35;;;;;;;4.73;3.80;;;;;;;2.65;100.00;94957.59;5095925;28;20439;-86
2021/01/10 00:12:01;;;;;;;3.97;3.17;;;;;;;2.61;100.00;94958.69;5043618;28;20431;-87
2021/01/10 00:14:28;;;;;;;5.43;4.33;;;;;;;2.58;100.00;94940.69;5095635;28;20451;-88
2021/01/10 00:16:54;;;;;;;5.20;3.87;;;;;;;2.59;100.00;94937.19;5094893;28;20486;-87
2021/01/10 00:19:21;;;;;;;4.00;3.70;;;;;;;2.76;100.00;94942.31;5095362;28;20447;-87
2021/01/10 00:21:48;;;;;;;5.17;4.67;;;;;;;2.85;100.00;94949.59;5010414;28;20439;-87
2021/01/10 00:24:14;;;;;;;6.40;4.43;;;;;;;2.98;100.00;94963.56;5095463;28;20447;-87
2021/01/10 00:26:40;;;;;;;5.23;4.53;;;;;;;3.06;100.00;94953.63;5095298;28;20504;-88
2021/01/10 00:29:08;;;;;;;4.80;4.40;;;;;;;3.14;100.00;94952.34;5095604;28;20450;-88
2021/01/10 00:31:36;;;;;;;8.90;7.00;;;;;;;3.25;100.00;94963.00;5044014;28;20452;-87
2021/01/10 00:34:03;;;;;;;8.10;6.17;;;;;;;3.11;100.00;94967.16;5095351;28;20451;-88
2021/01/10 00:36:34;;;;;;;16.17;10.20;;;;;;;3.10;100.00;94969.84;5094778;28;20479;-87
2021/01/10 00:39:01;;;;;;;9.30;7.57;;;;;;;3.17;100.00;94965.16;5095089;28;20470;-88
2021/01/10 00:41:27;;;;;;;9.37;6.33;;;;;;;3.17;100.00;94970.34;5095137;28;20443;-88
2021/01/10 00:43:54;;;;;;;6.30;5.10;;;;;;;3.20;100.00;94976.22;5095228;28;20935;-87
2021/01/10 00:46:20;;;;;;;9.70;7.90;;;;;;;3.24;100.00;94975.13;5095019;28;20473;-87
2021/01/10 00:48:46;;;;;;;10.57;7.50;;;;;;;3.20;100.00;94968.44;5095010;28;20443;-87
2021/01/10 00:51:13;;;;;;;12.53;8.20;;;;;;;3.24;100.00;94967.34;5094653;28;20444;-87
2021/01/10 00:53:41;;;;;;;10.90;7.40;;;;;;;3.26;100.00;94964.66;5059077;28;20501;-87
2021/01/10 00:56:09;;;;;;;9.10;6.57;;;;;;;3.30;100.00;94963.56;5095011;28;20521;-86
2021/01/10 00:58:35;;;;;;;7.67;6.20;;;;;;;3.08;100.00;94966.50;5094662;28;20970;-87
2021/01/10 01:01:02;;;;;;;9.77;7.60;;;;;;;3.11;100.00;94969.75;5095005;28;20439;-87
2021/01/10 01:03:29;;;;;;;10.67;7.60;;;;;;;3.14;100.00;94968.75;5042445;28;20428;-85
2021/01/10 01:05:55;;;;;;;10.37;7.20;;;;;;;2.86;100.00;94971.16;5094416;28;20831;-87
2021/01/10 01:08:22;;;;;;;9.87;7.60;;;;;;;2.91;100.00;94953.63;5042282;28;20935;-86
2021/01/10 01:10:50;;;;;;;6.93;5.40;;;;;;;2.63;100.00;94944.75;5094175;28;20455;-85
2021/01/10 01:13:16;;;;;;;5.57;4.43;;;;;;;2.48;100.00;94951.53;5093750;28;20481;-86
2021/01/10 01:15:43;;;;;;;3.43;3.13;;;;;;;2.69;100.00;94966.88;5094285;28;20885;-87
2021/01/10 01:18:10;;;;;;;5.10;4.70;;;;;;;2.78;100.00;94962.03;5094261;28;20444;-87
2021/01/10 01:20:36;;;;;;;5.30;4.70;;;;;;;2.75;100.00;94948.41;5042712;28;20455;-86
2021/01/10 01:23:03;;;;;;;5.40;3.90;;;;;;;2.49;100.00;94947.22;5094081;28;20454;-88
2021/01/10 01:25:29;;;;;;;7.83;5.10;;;;;;;2.49;100.00;94948.03;5093899;28;20814;-84
2021/01/10 01:27:56;;;;;;;4.90;4.40;;;;;;;2.54;100.00;94947.78;5093875;28;20439;-87
2021/01/10 01:30:23;;;;;;;7.70;6.45;;;;;;;2.43;100.00;94938.00;5094104;28;20552;-86
2021/01/10 01:32:49;;;;;;;11.75;7.18;;;;;;;2.54;100.00;94937.44;5093914;28;20194;-86
2021/01/10 01:35:15;;;;;;;5.67;5.10;;;;;;;2.62;100.00;94940.47;5093690;28;20584;-87
2021/01/10 01:37:42;;;;;;;5.40;4.30;;;;;;;2.65;100.00;94939.47;5041937;28;20935;-87
2021/01/10 01:40:09;;;;;;;8.60;5.80;;;;;;;2.68;100.00;94932.38;5093901;28;20492;-87
2021/01/10 01:42:36;;;;;;;14.03;9.47;;;;;;;2.84;100.00;94927.19;5093699;28;20451;-86
2021/01/10 01:45:06;;;;;;;27.90;13.90;;;;;;;2.84;100.00;94916.81;5093892;28;20447;-87
2021/01/10 01:47:33;;;;;;;23.43;11.13;;;;;;;2.85;100.00;94910.72;5093475;28;20450;-87
2021/01/10 01:49:59;;;;;;;12.30;8.63;;;;;;;3.01;100.00;94913.31;5093727;28;20451;-86
2021/01/10 01:52:26;;;;;;;8.90;6.90;;;;;;;3.17;100.00;94924.50;5093458;28;20443;-87
2021/01/10 01:54:53;;;;;;;9.83;5.97;;;;;;;3.31;100.00;94936.72;5093269;28;20448;-86
2021/01/10 01:57:20;;;;;;;18.17;8.03;;;;;;;3.26;100.00;94939.56;5093427;28;20482;-87
2021/01/10 01:59:46;;;;;;;9.70;7.60;;;;;;;3.25;100.00;94942.25;5093802;28;20443;-87
2021/01/10 02:02:14;;;;;;;7.37;4.80;;;;;;;3.17;100.00;94940.06;5093595;28;20442;-87
2021/01/10 02:04:48;;;;;;;6.90;6.27;;;;;;;2.97;100.00;94955.88;5093260;28;20431;-87
2021/01/10 02:07:21;;;;;;;5.87;4.80;;;;;;;3.05;100.00;94957.13;5093116;28;20494;-87
2021/01/10 02:09:51;;;;;;;4.33;3.93;;;;;;;3.08;100.00;94951.78;5093093;28;20799;-86
2021/01/10 02:12:19;;;;;;;4.10;3.73;;;;;;;3.09;100.00;94948.25;5093299;28;20451;-87
2021/01/10 02:14:51;;;;;;;5.03;4.20;;;;;;;3.21;100.00;94951.13;5093319;28;20490;-86
2021/01/10 02:17:19;;;;;;;4.83;3.50;;;;;;;3.09;100.00;94930.13;5093090;28;20439;-87
2021/01/10 02:19:55;;;;;;;6.23;3.93;;;;;;;3.03;100.00;94917.50;5093139;28;20940;-86
2021/01/10 02:22:27;;;;;;;3.13;2.60;;;;;;;3.06;100.00;94926.88;5093344;28;20807;-87
2021/01/10 02:24:55;;;;;;;3.40;3.10;;;;;;;3.10;100.00;94936.97;5092124;28;20454;-87
2021/01/10 02:27:22;;;;;;;4.53;3.67;;;;;;;3.11;100.00;94927.44;5041225;28;20447;-86
2021/01/10 02:29:49;;;;;;;3.83;3.23;;;;;;;3.07;100.00;94921.59;5093174;28;20529;-87
2021/01/10 02:32:18;;;;;;;5.30;2.60;;;;;;;3.19;100.00;94927.03;5041216;28;20435;-86
2021/01/10 02:34:46;;;;;;;3.27;3.07;;;;;;;3.29;100.00;94930.78;5093702;28;20482;-86
2021/01/10 02:37:27;;;;;;;3.23;2.93;;;;;;;3.34;100.00;94934.78;5040691;28;20481;-86
2021/01/10 02:40:11;;;;;;;7.13;5.07;;;;;;;3.43;100.00;94936.84;5092817;28;20454;-86
2021/01/10 02:42:47;;;;;;;14.73;10.83;;;;;;;3.52;100.00;94943.31;5093138;28;20439;-86
2021/01/10 02:45:19;;;;;;;7.80;6.90;;;;;;;3.61;100.00;94939.34;5093002;28;20446;-86
2021/01/10 02:47:45;;;;;;;8.73;7.40;;;;;;;3.59;100.00;94947.22;5092993;28;20444;-86
2021/01/10 02:50:17;;;;;;;14.23;8.60;;;;;;;3.60;100.00;94959.25;5094154;28;20797;-86
2021/01/10 02:52:44;;;;;;;9.23;6.07;;;;;;;3.68;100.00;94970.03;5108909;28;20435;-86
2021/01/10 02:55:12;;;;;;;11.43;6.40;;;;;;;3.76;100.00;94971.34;5098543;28;20447;-86
2021/01/10 02:57:39;;;;;;;12.60;8.00;;;;;;;3.82;100.00;94989.19;5094168;28;21026;-86
2021/01/10 03:00:08;;;;;;;8.73;6.07;;;;;;;3.86;100.00;94980.31;5040563;28;20439;-87
2021/01/10 03:02:36;;;;;;;9.90;8.27;;;;;;;3.93;100.00;94984.22;5092502;28;20443;-85
2021/01/10 03:05:03;;;;;;;11.37;7.73;;;;;;;4.00;100.00;94977.75;5092602;28;20931;-86
2021/01/10 03:07:31;;;;;;;10.10;7.80;;;;;;;4.06;100.00;94981.75;5092502;28;20505;-86
2021/01/10 03:09:58;;;;;;;11.67;7.13;;;;;;;4.07;99.10;94967.84;5092457;28;20512;-87
2021/01/10 03:12:25;;;;;;;10.47;7.67;;;;;;;4.06;98.46;94958.41;5092801;28;20447;-86
2021/01/10 03:14:53;;;;;;;9.73;7.40;;;;;;;3.83;98.59;94951.94;5092658;28;20435;-86
2021/01/10 03:17:26;;;;;;;12.20;7.80;;;;;;;3.95;99.60;94961.59;5092679;28;20462;-87
2021/01/10 03:19:52;;;;;;;11.60;7.60;;;;;;;4.02;99.01;94974.13;5092300;28;20443;-87
2021/01/10 03:22:19;;;;;;;16.33;7.87;;;;;;;4.08;99.40;94983.34;5092639;28;20459;-85
2021/01/10 03:24:45;;;;;;;11.43;6.80;;;;;;;4.04;98.87;94974.03;5092246;28;20468;-86
2021/01/10 03:27:12;;;;;;;29.17;19.87;;;;;;;3.94;98.13;94965.13;5092256;28;20450;-86
2021/01/10 03:29:39;;;;;;;27.67;14.60;;;;;;;3.86;98.75;94969.94;5092298;28;20440;-86
2021/01/10 03:32:06;;;;;;;28.60;13.13;;;;;;;3.70;98.95;94969.94;5092472;28;20789;-85
2021/01/10 03:34:32;;;;;;;11.43;7.70;;;;;;;3.67;99.07;94978.75;5092221;28;20444;-85
2021/01/10 03:36:59;;;;;;;7.23;6.17;;;;;;;3.57;99.50;94990.56;5095102;28;20540;-86
2021/01/10 03:39:26;;;;;;;9.33;6.33;;;;;;;3.58;100.00;94987.06;5095778;28;20443;-85
2021/01/10 03:41:53;;;;;;;5.37;4.60;;;;;;;3.58;100.00;94981.03;5044108;28;20439;-86
2021/01/10 03:44:19;;;;;;;7.57;6.30;;;;;;;3.53;100.00;94983.06;5095932;28;20435;-86
2021/01/10 03:46:47;;;;;;;8.53;6.13;;;;;;;3.60;100.00;94984.38;5095845;28;20444;-83
2021/01/10 03:49:13;;;;;;;6.10;4.93;;;;;;;3.63;100.00;94986.78;5043632;28;20439;-85
2021/01/10 03:51:39;;;;;;;6.77;4.83;;;;;;;3.64;100.00;94986.69;5095360;28;20440;-89
2021/01/10 03:54:06;;;;;;;6.13;5.40;;;;;;;3.69;100.00;94979.50;5095826;28;20797;-86
2021/01/10 03:56:32;;;;;;;6.40;4.87;;;;;;;3.82;100.00;94982.25;5095177;28;20495;-85
2021/01/10 03:58:58;;;;;;;7.43;6.73;;;;;;;3.92;100.00;94985.97;5095556;28;20509;-85
2021/01/10 04:01:25;;;;;;;7.20;5.97;;;;;;;3.93;100.00;94979.84;5095221;28;20457;-85
2021/01/10 04:03:52;;;;;;;14.43;10.70;;;;;;;4.02;100.00;94960.31;5095285;28;20466;-85
2021/01/10 04:06:19;;;;;;;10.97;9.10;;;;;;;4.08;99.31;94975.56;5095260;28;20504;-85
2021/01/10 04:08:46;;;;;;;8.87;7.40;;;;;;;4.15;98.25;94982.06;5095529;28;20440;-85
2021/01/10 04:11:12;;;;;;;8.53;6.47;;;;;;;4.22;98.19;94983.38;5095510;28;20526;-85
2021/01/10 04:13:39;;;;;;;10.03;6.53;;;;;;;4.26;97.56;94984.00;5095277;28;20446;-85
2021/01/10 04:16:06;;;;;;;7.40;6.33;;;;;;;4.31;98.00;94998.41;5094948;28;20479;-85
2021/01/10 04:18:32;;;;;;;8.73;7.37;;;;;;;4.36;98.20;94979.97;5095383;28;20450;-85
2021/01/10 04:21:02;;;;;;;11.73;7.60;;;;;;;4.41;97.04;94977.09;5095183;28;20509;-85
2021/01/10 04:23:28;;;;;;;11.50;8.20;;;;;;;4.39;96.78;94973.75;5095402;28;20443;-85
2021/01/10 04:25:55;;;;;;;33.43;17.83;;;;;;;4.26;95.95;94974.47;5095133;28;20451;-86
2021/01/10 04:28:21;;;;;;;23.63;15.87;;;;;;;4.23;97.26;94972.03;5094844;28;20439;-86
2021/01/10 04:30:48;;;;;;;13.60;8.07;;;;;;;4.13;97.04;94988.28;5094748;28;20432;-85
2021/01/10 04:33:14;;;;;;;8.00;6.43;;;;;;;4.07;97.43;94989.47;5094971;28;20447;-85
2021/01/10 04:35:40;;;;;;;8.40;6.20;;;;;;;4.04;97.34;94990.44;5094995;28;20486;-86
2021/01/10 04:38:08;;;;;;;6.90;5.60;;;;;;;3.97;97.57;94981.34;5059494;28;20950;-86
2021/01/10 04:40:34;;;;;;;11.77;5.70;;;;;;;3.93;97.60;94979.03;5094971;28;20439;-86
2021/01/10 04:43:01;;;;;;;6.47;5.37;;;;;;;3.82;98.04;94984.00;5094927;28;20565;-86
2021/01/10 04:45:28;;;;;;;6.83;6.23;;;;;;;3.74;98.09;94987.84;5094692;28;20526;-85
2021/01/10 04:47:55;;;;;;;8.70;7.87;;;;;;;3.67;99.15;94986.53;5093718;28;20454;-86
2021/01/10 04:50:23;;;;;;;7.80;7.10;;;;;;;3.64;98.98;94978.91;5094636;28;20444;-86
2021/01/10 04:52:53;;;;;;;11.73;10.40;;;;;;;3.64;99.23;94986.69;5094771;28;20447;-86
2021/01/10 04:55:21;;;;;;;22.13;11.30;;;;;;;3.71;100.00;94976.81;5094603;28;20443;-86
2021/01/10 04:57:50;;;;;;;15.20;9.40;;;;;;;3.73;99.79;94977.56;5094484;28;20471;-86
2021/01/10 05:00:18;;;;;;;16.50;10.03;;;;;;;3.80;99.30;94972.88;5094609;28;20470;-85
2021/01/10 05:02:47;;;;;;;14.67;8.90;;;;;;;3.90;100.00;94974.00;5059387;28;20443;-86
2021/01/10 05:05:14;;;;;;;11.07;7.53;;;;;;;3.95;99.43;94980.59;5094476;28;20447;-86
2021/01/10 05:07:42;;;;;;;8.67;6.40;;;;;;;3.92;98.27;94980.78;5094647;28;20847;-86
2021/01/10 05:10:09;;;;;;;13.27;8.10;;;;;;;4.03;97.32;94974.97;5094380;28;20569;-86
2021/01/10 05:12:37;;;;;;;11.77;8.07;;;;;;;4.00;96.81;94986.38;5094384;28;20451;-87
2021/01/10 05:15:04;;;;;;;12.40;6.67;;;;;;;4.01;97.50;94980.25;5094194;28;20997;-87
2021/01/10 05:17:32;;;;;;;10.27;5.47;;;;;;;4.04;97.41;94984.41;5042872;28;20475;-86
2021/01/10 05:19:59;;;;;;;11.47;5.73;;;;;;;4.11;97.66;94985.75;5042628;28;20458;-86
2021/01/10 05:22:25;;;;;;;4.97;4.27;;;;;;;4.18;97.84;94992.25;5094239;28;20500;-86
2021/01/10 05:24:51;;;;;;;6.90;4.90;;;;;;;4.22;97.42;94998.94;5094201;28;20804;-85
2021/01/10 05:27:19;;;;;;;5.70;4.10;;;;;;;4.30;98.02;95001.91;5094221;28;20453;-86
2021/01/10 05:29:46;;;;;;;6.83;6.20;;;;;;;4.25;96.73;94998.75;5093972;28;20485;-85
2021/01/10 05:32:13;;;;;;;10.43;7.77;;;;;;;4.01;97.00;94994.97;5094075;28;20443;-86
2021/01/10 05:34:39;;;;;;;9.50;8.57;;;;;;;3.96;97.01;94992.66;5093837;28;20444;-86
2021/01/10 05:37:14;;;;;;;15.17;11.27;;;;;;;3.95;97.08;94995.34;5094171;28;20490;-87
2021/01/10 05:39:46;;;;;;;15.60;11.10;;;;;;;3.93;98.02;94990.25;5093936;28;20506;-86
2021/01/10 05:42:13;;;;;;;27.73;18.57;;;;;;;3.74;98.38;94993.03;5093819;28;20518;-86
2021/01/10 05:44:51;;;;;;;21.50;12.40;;;;;;;3.84;98.77;95000.31;5096371;28;20939;-85
2021/01/10 05:47:19;;;;;;;12.73;7.93;;;;;;;3.93;98.27;95007.56;5114935;28;20997;-87
2021/01/10 05:49:46;;;;;;;7.63;5.03;;;;;;;3.92;97.54;95008.50;5100194;28;20486;-86
2021/01/10 05:52:14;;;;;;;5.10;3.70;;;;;;;3.89;97.31;95016.47;5094958;28;20435;-87
2021/01/10 05:54:42;;;;;;;4.80;4.20;;;;;;;3.91;96.42;95031.03;5094187;28;20439;-86
2021/01/10 05:57:09;;;;;;;3.47;3.13;;;;;;;3.87;95.76;95029.53;5093850;28;20494;-87
2021/01/10 05:59:37;;;;;;;6.17;4.13;;;;;;;3.70;95.79;95027.88;5093597;28;20489;-86
2021/01/10 06:02:06;;;;;;;16.03;9.67;;;;;;;3.59;96.38;95030.22;5093908;28;20436;-86
2021/01/10 06:04:34;;;;;;;4.50;3.60;;;;;;;3.65;97.06;95029.06;5093618;28;20528;-86
2021/01/10 06:07:01;;;;;;;8.30;6.90;;;;;;;3.59;97.25;95034.59;5093882;28;20447;-87
2021/01/10 06:09:27;;;;;;;5.10;3.80;;;;;;;3.43;97.27;95034.59;5093401;28;20442;-87
2021/01/10 06:11:54;;;;;;;24.20;17.17;;;;;;;3.31;98.47;95025.72;5093493;28;20444;-86
2021/01/10 06:14:22;;;;;;;15.70;11.47;;;;;;;3.32;99.89;95021.38;5093368;28;20439;-87
2021/01/10 06:16:54;;;;;;;8.87;7.67;;;;;;;3.31;99.63;95017.09;5093214;28;20841;-87
2021/01/10 06:19:26;;;;;;;7.53;4.00;;;;;;;3.41;99.15;95020.84;5093415;28;20461;-86
2021/01/10 06:21:55;;;;;;;7.40;5.13;;;;;;;3.52;99.50;95002.97;5093629;28;20439;-86
2021/01/10 06:24:24;;;;;;;8.30;4.50;;;;;;;3.53;98.70;95015.00;5057886;28;20458;-87
2021/01/10 06:27:03;;;;;;;7.53;5.10;;;;;;;3.52;98.98;95022.88;5093653;28;20500;-86
2021/01/10 06:29:39;;;;;;;9.03;5.20;;;;;;;3.48;98.83;95036.94;5093448;28;20439;-86
2021/01/10 06:32:11;;;;;;;7.77;6.03;;;;;;;3.56;98.78;95038.19;5093076;28;20973;-87
2021/01/10 06:34:41;;;;;;;5.83;5.23;;;;;;;3.28;99.32;95045.81;5093033;28;20447;-86
2021/01/10 06:37:09;;;;;;;3.13;2.60;;;;;;;3.17;99.40;95042.94;5093076;28;20485;-87
2021/01/10 06:39:40;;;;;;;3.23;2.80;;;;;;;3.29;100.00;95027.56;5093516;28;20462;-87
2021/01/10 06:42:09;;;;;;;4.00;3.50;;;;;;;3.19;100.00;95038.53;5093255;28;20519;-87
2021/01/10 06:44:38;;;;;;;27.40;16.00;;;;;;;3.07;100.00;95046.03;5093054;28;20443;-87
2021/01/10 06:47:05;;;;;;;3.53;3.23;;;;;;;2.61;100.00;95045.00;5092876;28;20451;-85
2021/01/10 06:49:32;;;;;;;4.67;4.03;;;;;;;2.74;100.00;95050.38;5093499;28;20442;-87
2021/01/10 06:52:03;;;;;;;4.43;4.13;;;;;;;2.63;100.00;95044.94;5092892;28;20496;-87
2021/01/10 06:54:30;;;;;;;2.67;2.47;;;;;;;2.68;100.00;95046.34;5041281;28;20435;-88
2021/01/10 06:56:56;;;;;;;3.10;2.53;;;;;;;2.73;100.00;95043.53;5093235;28;20584;-87
2021/01/10 06:59:24;;;;;;;4.47;4.07;;;;;;;2.75;100.00;95052.91;5041222;28;20857;-86
2021/01/10 07:02:01;;;;;;;4.30;4.00;;;;;;;3.00;100.00;95062.81;5093103;28;20484;-87
2021/01/10 07:04:58;;;;;;;3.90;3.30;;;;;;;3.17;100.00;95069.69;5093169;28;20451;-87
2021/01/10 07:07:37;;;;;;;3.53;3.20;;;;;;;3.33;100.00;95069.72;5092948;28;20443;-87
2021/01/10 07:10:06;;;;;;;2.90;2.60;;;;;;;3.33;100.00;95091.31;5092981;28;20939;-86
2021/01/10 07:12:33;;;;;;;2.57;2.37;;;;;;;3.19;100.00;95091.22;5096717;28;20454;-87
2021/01/10 07:15:30;;;;;;;2.17;1.97;;;;;;;3.08;100.00;95077.97;5045137;28;20435;-87
2021/01/10 07:18:07;;;;;;;2.27;2.07;;;;;;;2.93;100.00;95077.03;5096476;28;20448;-86
2021/01/10 07:20:36;;;;;;;29.00;19.47;;;;;;;2.81;100.00;95080.22;5044290;28;20434;-86
2021/01/10 07:23:34;;;;;;;4.60;4.13;;;;;;;2.80;100.00;95068.19;5096508;28;20473;-87
2021/01/10 07:26:01;;;;;;;2.90;2.70;;;;;;;2.85;100.00;95073.13;5096288;28;20450;-83
2021/01/10 07:28:42;;;;;;;3.40;2.63;;;;;;;2.93;100.00;95082.22;5096428;28;21019;-87
2021/01/10 07:31:18;;;;;;;3.77;3.47;;;;;;;2.88;100.00;95089.34;5096462;28;20442;-86
2021/01/10 07:33:45;;;;;;;3.87;2.90;;;;;;;2.88;100.00;95084.19;5096286;28;20799;-87
2021/01/10 07:36:12;;;;;;;4.90;3.53;;;;;;;2.96;100.00;95081.22;5096014;28;20493;-85
2021/01/10 07:38:41;;;;;;;6.57;3.73;;;;;;;2.74;100.00;95084.06;5096176;28;20451;-85
2021/01/10 07:41:30;;;;;;;6.03;4.67;;;;;;;2.91;100.00;95084.03;5096094;28;20874;-86
2021/01/10 07:43:58;;;;;;;4.57;4.10;;;;;;;3.03;100.00;95079.97;5033630;28;20442;-85
2021/01/10 07:47:01;;;;;;;19.73;4.37;;;;;;;3.14;100.00;95082.81;5033648;28;20438;-84
2021/01/10 07:49:40;;;;;;;4.60;3.30;;;;;;;3.25;100.00;95093.47;5033687;28;20858;-85
2021/01/10 07:52:06;;;;;;;12.00;5.73;;;;;;;3.28;100.00;95082.09;5033681;28;20487;-87
2021/01/10 07:54:53;;;;;;;40.73;27.47;;;;;;;3.07;100.00;95071.09;5033591;28;20446;-86
2021/01/10 07:57:36;;;;;;;26.80;18.47;;;;;;;3.20;100.00;95076.50;5033245;28;20494;-86
2021/01/10 08:00:11;;;;;;;5.47;5.07;;;;;;;3.41;100.00;95090.88;5033255;28;20438;-86
2021/01/10 08:02:51;;;;;;;13.50;10.40;;;;;;;3.36;100.00;95096.31;5033656;28;20446;-86
2021/01/10 08:05:19;;;;;;;6.43;5.80;;;;;;;3.32;100.00;95078.44;5033232;28;20951;-85
2021/01/10 08:07:46;;;;;;;3.10;2.70;;;;;;;3.39;100.00;95095.31;5033177;28;20520;-85
2021/01/10 08:10:14;;;;;;;3.53;3.17;;;;;;;3.40;100.00;95103.03;5033272;28;20521;-86
2021/01/10 08:12:40;;;;;;;4.23;3.40;;;;;;;3.51;100.00;95109.41;5034266;28;20482;-85
2021/01/10 08:15:08;;;;;;;13.93;10.60;;;;;;;3.54;100.00;95106.66;5032908;28;21008;-86
2021/01/10 08:17:37;;;;;;;16.90;12.73;;;;;;;3.49;100.00;95096.53;5033308;28;20482;-86
2021/01/10 08:20:05;;;;;;;3.47;3.17;;;;;;;3.64;100.00;95103.47;5044767;28;20852;-86
2021/01/10 08:22:32;;;;;;;2.63;2.43;;;;;;;3.67;100.00;95090.31;5094134;28;20440;-85
2021/01/10 08:24:58;;;;;;;4.43;2.70;;;;;;;3.72;100.00;95085.72;5095306;28;20443;-86
2021/01/10 08:27:26;;;;;;;15.40;9.17;;;;;;;3.69;100.00;95080.69;5095842;28;20958;-85
2021/01/10 08:29:53;;;;;;;13.37;8.30;;;;;;;3.73;100.00;95076.16;5043168;28;20443;-85
2021/01/10 08:32:20;;;;;;;11.37;6.93;;;;;;;3.68;100.00;95094.59;5095161;28;20447;-85
2021/01/10 08:34:47;;;;;;;9.10;7.27;;;;;;;3.68;100.00;95099.78;5094831;28;20990;-85
2021/01/10 08:37:15;;;;;;;7.10;5.80;;;;;;;3.71;100.00;95104.78;5095024;28;20494;-84
2021/01/10 08:39:42;;;;;;;10.50;7.00;;;;;;;3.59;100.00;95117.63;5094757;28;20446;-84
2021/01/10 08:42:08;;;;;;;15.23;7.60;;;;;;;3.72;99.59;95122.03;5042540;28;20428;-84
2021/01/10 08:44:35;;;;;;;20.23;10.10;;;;;;;3.74;99.54;95122.78;5105738;28;20448;-85
2021/01/10 08:47:07;;;;;;;21.77;10.30;;;;;;;3.78;99.84;95100.13;5108145;28;20462;-85
2021/01/10 08:49:34;;;;;;;58.57;21.60;;;;;;;3.91;98.98;95108.06;5095979;28;20451;-85
2021/01/10 08:52:05;;;;;;;20.30;11.63;;;;;;;3.91;99.03;95103.72;5096132;28;20432;-85
2021/01/10 08:54:31;;;;;;;20.30;10.93;;;;;;;4.06;99.33;95112.41;5095295;28;20467;-82
2021/01/10 08:56:58;;;;;;;20.40;10.10;;;;;;;4.09;98.73;95104.47;5094603;28;20499;-84
2021/01/10 08:59:36;;;;;;;17.77;9.70;;;;;;;4.17;98.60;95104.84;5094290;28;20939;-84
2021/01/10 09:02:09;;;;;;;21.23;11.30;;;;;;;4.32;99.24;95135.13;5094207;28;20435;-83
2021/01/10 09:04:40;;;;;;;18.43;11.23;;;;;;;4.35;98.28;95132.41;5059075;28;20443;-84
2021/01/10 09:07:17;;;;;;;17.17;11.80;;;;;;;4.19;97.82;95121.19;5094178;28;20479;-84
2021/01/10 09:09:47;;;;;;;53.63;26.80;;;;;;;4.18;98.16;95106.53;5094353;28;20474;-84
2021/01/10 09:12:31;;;;;;;43.97;25.93;;;;;;;4.15;98.35;95101.50;5094270;28;20448;-83
2021/01/10 09:15:02;;;;;;;58.13;29.93;;;;;;;4.06;98.48;95101.19;5094260;28;20453;-84
2021/01/10 09:17:34;;;;;;;47.70;28.43;;;;;;;3.97;98.26;95090.38;5093923;28;20850;-82
2021/01/10 09:20:06;;;;;;;31.60;19.53;;;;;;;4.04;98.79;95080.47;5094142;28;20435;-85
2021/01/10 09:22:35;;;;;;;9.80;6.30;;;;;;;3.69;100.00;95078.09;5094135;28;20450;-85
2021/01/10 09:25:08;;;;;;;7.80;4.57;;;;;;;3.76;100.00;95077.75;5093775;28;20451;-85
2021/01/10 09:27:36;;;;;;;5.63;3.87;;;;;;;3.80;100.00;95084.47;5094056;28;20472;-86
2021/01/10 09:30:06;;;;;;;3.67;3.30;;;;;;;3.96;99.92;95082.69;5094019;28;20447;-86
2021/01/10 09:32:33;;;;;;;6.63;4.43;;;;;;;4.00;99.12;95090.22;5093669;28;20787;-84
2021/01/10 09:35:00;;;;;;;14.53;9.30;;;;;;;4.11;99.85;95089.63;5093592;28;20439;-86
2021/01/10 09:37:28;;;;;;;14.33;11.33;;;;;;;4.27;99.24;95082.63;5093606;28;20483;-86
2021/01/10 09:40:05;;;;;;;41.03;21.23;;;;;;;4.34;98.36;95065.78;5093913;28;20444;-85
2021/01/10 09:42:41;;;;;;;12.43;9.13;;;;;;;4.33;98.59;95055.44;5093781;28;20443;-85
2021/01/10 09:45:10;;;;;;;11.63;9.03;;;;;;;4.43;98.48;95060.97;5093933;28;20466;-86
2021/01/10 09:47:36;;;;;;;6.10;5.30;;;;;;;4.31;97.37;95060.75;5093520;28;20435;-86
2021/01/10 09:50:10;;;;;;;5.30;4.53;;;;;;;4.38;97.08;95071.63;5093438;28;20440;-85
2021/01/10 09:52:46;;;;;;;6.77;6.17;;;;;;;4.48;97.29;95071.94;5093407;28;20443;-85
2021/01/10 09:55:12;;;;;;;13.70;8.93;;;;;;;4.51;96.56;95071.75;5093555;28;20443;-86
2021/01/10 09:57:39;;;;;;;28.00;11.03;;;;;;;4.61;96.74;95065.06;5093071;28;20491;-86
2021/01/10 10:00:13;;;;;;;17.00;11.70;;;;;;;4.68;96.22;95061.22;5093533;28;20454;-86
2021/01/10 10:02:40;;;;;;;21.20;13.60;;;;;;;4.77;96.89;95062.41;5059380;28;20465;-86
2021/01/10 10:05:12;;;;;;;28.53;13.87;;;;;;;4.61;95.76;95058.13;5093009;28;20840;-86
2021/01/10 10:07:41;;;;;;;71.63;43.50;;;;;;;4.69;96.09;95056.84;5058266;28;20460;-85
2021/01/10 10:10:19;;;;;;;29.17;20.70;;;;;;;4.56;96.42;95046.31;5093629;28;20481;-86
2021/01/10 10:13:04;;;;;;;20.87;16.13;;;;;;;4.17;96.88;95036.50;5093209;28;20445;-86
2021/01/10 10:15:36;;;;;;;5.20;4.50;;;;;;;4.07;97.50;95018.03;5093242;28;20443;-86
2021/01/10 10:18:03;;;;;;;7.20;4.50;;;;;;;3.95;97.90;95019.53;5057782;28;20444;-87
2021/01/10 10:20:30;;;;;;;19.63;9.80;;;;;;;3.85;97.58;95020.16;5093197;28;20439;-85
2021/01/10 10:23:06;;;;;;;22.43;13.97;;;;;;;3.65;98.95;95021.28;5093153;28;20448;-86
2021/01/10 10:25:32;;;;;;;9.93;6.60;;;;;;;3.87;98.57;95006.16;5093100;28;20442;-86
2021/01/10 10:28:00;;;;;;;7.10;4.87;;;;;;;3.85;99.57;95000.22;5093326;28;20451;-86
2021/01/10 10:30:27;;;;;;;7.50;6.53;;;;;;;3.79;99.27;94999.75;5093877;28;20446;-86
2021/01/10 10:32:55;;;;;;;18.10;12.57;;;;;;;3.63;99.01;95000.59;5041829;28;20435;-85
2021/01/10 10:35:22;;;;;;;18.93;13.73;;;;;;;3.63;99.96;94985.03;5057776;28;20443;-85
2021/01/10 10:37:49;;;;;;;14.13;11.40;;;;;;;3.85;99.05;94995.03;5092882;28;20528;-87
2021/01/10 10:40:16;;;;;;;7.90;4.80;;;;;;;3.83;98.35;94998.66;5092883;28;20484;-86
2021/01/10 10:42:42;;;;;;;8.07;6.07;;;;;;;3.98;99.13;94995.16;5041119;28;20456;-85
2021/01/10 10:45:10;;;;;;;4.50;3.73;;;;;;;3.71;98.71;95002.75;5092990;28;20443;-85
2021/01/10 10:47:36;;;;;;;4.57;3.13;;;;;;;3.74;99.36;94993.03;5096832;28;20453;-84
2021/01/10 10:50:04;;;;;;;10.50;3.30;;;;;;;3.57;100.00;95006.13;5096941;28;20439;-86
2021/01/10 10:52:31;;;;;;;3.40;2.70;;;;;;;3.70;100.00;95001.09;5044801;28;20866;-85
2021/01/10 10:54:57;;;;;;;7.33;3.10;;;;;;;3.72;100.00;94999.25;5044862;28;20463;-86
2021/01/10 10:57:23;;;;;;;3.30;2.90;;;;;;;3.57;100.00;94985.38;5096575;28;20489;-85
2021/01/10 10:59:50;;;;;;;6.80;5.50;;;;;;;3.51;100.00;94984.91;5096743;28;20501;-86
2021/01/10 11:02:17;;;;;;;12.73;4.70;;;;;;;3.52;100.00;94996.94;5096429;28;20451;-86
2021/01/10 11:04:45;;;;;;;11.60;7.20;;;;;;;3.77;100.00;94989.47;5077551;28;20514;-85
2021/01/10 11:07:13;;;;;;;12.17;9.10;;;;;;;3.97;100.00;94977.91;5096670;28;20877;-86
2021/01/10 11:09:40;;;;;;;4.57;4.00;;;;;;;3.96;99.12;94981.44;5096380;28;20466;-85
2021/01/10 11:12:09;;;;;;;6.10;3.30;;;;;;;3.95;99.24;94984.97;5096852;28;20443;-84
2021/01/10 11:14:35;;;;;;;5.90;5.10;;;;;;;4.01;99.04;94985.44;5097548;28;20439;-86
2021/01/10 11:17:04;;;;;;;7.40;6.60;;;;;;;4.15;97.88;94974.25;5096472;28;20478;-86
2021/01/10 11:19:31;;;;;;;13.70;9.90;;;;;;;4.19;98.20;94980.94;5096570;28;20481;-86
2021/01/10 11:22:00;;;;;;;14.07;11.50;;;;;;;4.28;97.60;94983.00;5096867;28;20441;-85
2021/01/10 11:24:27;;;;;;;16.43;9.67;;;;;;;4.38;97.58;94972.91;5096884;28;20443;-84
2021/01/10 11:26:53;;;;;;;13.03;9.20;;;;;;;4.31;96.42;94976.78;5096820;28;20443;-86
2021/01/10 11:29:20;;;;;;;14.13;9.00;;;;;;;4.44;96.92;94969.13;5096768;28;20444;-86
2021/01/10 11:31:46;;;;;;;7.37;5.30;;;;;;;4.31;95.70;94969.00;5096445;28;20443;-84
2021/01/10 11:34:13;;;;;;;12.07;7.30;;;;;;;4.09;96.36;94961.66;5096238;28;20932;-86
2021/01/10 11:36:42;;;;;;;4.70;4.30;;;;;;;3.94;97.42;94963.34;5096423;28;20493;-85
2021/01/10 11:39:09;;;;;;;3.13;2.57;;;;;;;3.89;97.96;94948.97;5060478;28;20557;-86
2021/01/10 11:41:38;;;;;;;5.47;3.53;;;;;;;3.81;99.12;94951.19;5095949;28;20789;-86